sensor_id;sensor_type;location;lat;lon;timestamp;temperature;humidity
51305;HTU21D;37392;50.964;6.952;2024-02-26T00:02:25;7.02;98.64
51305;HTU21D;37392;50.964;6.952;2024-02-26T00:04:51;7.00;97.73
51305;HTU21D;37392;50.964;6.952;2024-02-26T00:07:16;6.89;98.44
51305;HTU21D;37392;50.964;6.952;2024-02-26T00:09:42;6.83;99.12
51305;HTU21D;37392;50.964;6.952;2024-02-26T00:12:07;6.83;100.32
51305;HTU21D;37392;50.964;6.952;2024-02-26T00:14:33;6.76;100.95
51305;HTU21D;37392;50.964;6.952;2024-02-26T00:16:59;6.76;101.58
51305;HTU21D;37392;50.964;6.952;2024-02-26T00:19:25;6.72;102.07
51305;HTU21D;37392;50.964;6.952;2024-02-26T00:21:51;6.67;101.88
51305;HTU21D;37392;50.964;6.952;2024-02-26T00:24:18;6.65;102.18
51305;HTU21D;37392;50.964;6.952;2024-02-26T00:26:44;6.59;101.91
51305;HTU21D;37392;50.964;6.952;2024-02-26T00:29:10;6.69;101.55
51305;HTU21D;37392;50.964;6.952;2024-02-26T00:31:36;6.68;101.55
51305;HTU21D;37392;50.964;6.952;2024-02-26T00:34:03;6.72;100.92
51305;HTU21D;37392;50.964;6.952;2024-02-26T00:36:28;6.71;101.06
51305;HTU21D;37392;50.964;6.952;2024-02-26T00:38:54;6.73;100.64
51305;HTU21D;37392;50.964;6.952;2024-02-26T00:41:20;6.76;100.19
51305;HTU21D;37392;50.964;6.952;2024-02-26T00:43:46;6.73;100.38
51305;HTU21D;37392;50.964;6.952;2024-02-26T00:46:12;6.67;101.04
51305;HTU21D;37392;50.964;6.952;2024-02-26T00:48:38;6.67;101.60
51305;HTU21D;37392;50.964;6.952;2024-02-26T00:51:04;6.65;102.21
51305;HTU21D;37392;50.964;6.952;2024-02-26T00:53:31;6.63;101.77
51305;HTU21D;37392;50.964;6.952;2024-02-26T00:55:57;6.55;103.03
51305;HTU21D;37392;50.964;6.952;2024-02-26T00:58:24;6.57;103.35
51305;HTU21D;37392;50.964;6.952;2024-02-26T01:00:50;6.54;103.63
51305;HTU21D;37392;50.964;6.952;2024-02-26T01:03:17;6.55;104.32
51305;HTU21D;37392;50.964;6.952;2024-02-26T01:05:43;6.48;110.04
51305;HTU21D;37392;50.964;6.952;2024-02-26T01:08:09;6.38;108.51
51305;HTU21D;37392;50.964;6.952;2024-02-26T01:10:34;6.29;109.16
51305;HTU21D;37392;50.964;6.952;2024-02-26T01:13:00;6.26;109.93
51305;HTU21D;37392;50.964;6.952;2024-02-26T01:15:26;6.14;110.33
51305;HTU21D;37392;50.964;6.952;2024-02-26T01:17:52;6.26;109.86
51305;HTU21D;37392;50.964;6.952;2024-02-26T01:20:18;6.12;111.55
51305;HTU21D;37392;50.964;6.952;2024-02-26T01:22:43;6.06;113.03
51305;HTU21D;37392;50.964;6.952;2024-02-26T01:25:09;6.06;113.35
51305;HTU21D;37392;50.964;6.952;2024-02-26T01:27:36;6.11;111.70
51305;HTU21D;37392;50.964;6.952;2024-02-26T01:30:05;6.21;111.23
51305;HTU21D;37392;50.964;6.952;2024-02-26T01:32:32;6.06;113.14
51305;HTU21D;37392;50.964;6.952;2024-02-26T01:34:57;5.97;114.54
51305;HTU21D;37392;50.964;6.952;2024-02-26T01:37:23;6.00;113.10
51305;HTU21D;37392;50.964;6.952;2024-02-26T01:39:48;5.99;114.57
51305;HTU21D;37392;50.964;6.952;2024-02-26T01:42:14;6.06;113.74
51305;HTU21D;37392;50.964;6.952;2024-02-26T01:44:40;6.06;113.66
51305;HTU21D;37392;50.964;6.952;2024-02-26T01:47:07;5.89;115.05
51305;HTU21D;37392;50.964;6.952;2024-02-26T01:49:35;5.90;115.88
51305;HTU21D;37392;50.964;6.952;2024-02-26T01:52:02;5.94;116.60
51305;HTU21D;37392;50.964;6.952;2024-02-26T01:54:29;5.87;116.68
51305;HTU21D;37392;50.964;6.952;2024-02-26T01:56:56;5.92;116.60
51305;HTU21D;37392;50.964;6.952;2024-02-26T01:59:22;5.95;116.19
51305;HTU21D;37392;50.964;6.952;2024-02-26T02:01:52;5.91;117.86
51305;HTU21D;37392;50.964;6.952;2024-02-26T02:04:21;5.92;117.89
51305;HTU21D;37392;50.964;6.952;2024-02-26T02:06:48;5.85;118.86
51305;HTU21D;37392;50.964;6.952;2024-02-26T02:09:15;5.89;118.80
51305;HTU21D;37392;50.964;6.952;2024-02-26T02:11:41;5.83;118.69
51305;HTU21D;37392;50.964;6.952;2024-02-26T02:14:06;5.82;-5.69
51305;HTU21D;37392;50.964;6.952;2024-02-26T02:16:32;5.81;-5.47
51305;HTU21D;37392;50.964;6.952;2024-02-26T02:18:58;5.93;117.88
51305;HTU21D;37392;50.964;6.952;2024-02-26T02:21:24;5.90;117.68
51305;HTU21D;37392;50.964;6.952;2024-02-26T02:23:49;5.87;118.87
51305;HTU21D;37392;50.964;6.952;2024-02-26T02:26:15;5.96;117.66
51305;HTU21D;37392;50.964;6.952;2024-02-26T02:28:41;5.89;118.34
51305;HTU21D;37392;50.964;6.952;2024-02-26T02:31:07;5.94;118.37
51305;HTU21D;37392;50.964;6.952;2024-02-26T02:33:34;6.04;116.53
51305;HTU21D;37392;50.964;6.952;2024-02-26T02:36:00;5.87;118.91
51305;HTU21D;37392;50.964;6.952;2024-02-26T02:38:25;5.95;118.75
51305;HTU21D;37392;50.964;6.952;2024-02-26T02:40:52;5.94;118.55
51305;HTU21D;37392;50.964;6.952;2024-02-26T02:43:17;5.86;-5.25
51305;HTU21D;37392;50.964;6.952;2024-02-26T02:45:43;5.87;-5.34
51305;HTU21D;37392;50.964;6.952;2024-02-26T02:48:08;5.83;-4.42
51305;HTU21D;37392;50.964;6.952;2024-02-26T02:50:34;5.83;-4.19
51305;HTU21D;37392;50.964;6.952;2024-02-26T02:52:59;5.87;-5.55
51305;HTU21D;37392;50.964;6.952;2024-02-26T02:55:25;5.81;-5.10
51305;HTU21D;37392;50.964;6.952;2024-02-26T02:57:51;5.90;-5.84
51305;HTU21D;37392;50.964;6.952;2024-02-26T03:00:16;5.81;-4.56
51305;HTU21D;37392;50.964;6.952;2024-02-26T03:02:42;5.78;-4.00
51305;HTU21D;37392;50.964;6.952;2024-02-26T03:05:10;5.79;-3.41
51305;HTU21D;37392;50.964;6.952;2024-02-26T03:11:16;5.80;-3.60
51305;HTU21D;37392;50.964;6.952;2024-02-26T03:13:42;5.86;-4.35
51305;HTU21D;37392;50.964;6.952;2024-02-26T03:16:07;5.82;-3.98
51305;HTU21D;37392;50.964;6.952;2024-02-26T03:18:33;5.83;-3.70
51305;HTU21D;37392;50.964;6.952;2024-02-26T03:20:59;5.84;-3.72
51305;HTU21D;37392;50.964;6.952;2024-02-26T03:23:25;5.91;-3.88
51305;HTU21D;37392;50.964;6.952;2024-02-26T03:25:50;5.92;-4.15
51305;HTU21D;37392;50.964;6.952;2024-02-26T03:28:16;5.92;-4.28
51305;HTU21D;37392;50.964;6.952;2024-02-26T03:30:41;5.87;-3.31
51305;HTU21D;37392;50.964;6.952;2024-02-26T03:33:07;5.85;-2.83
51305;HTU21D;37392;50.964;6.952;2024-02-26T03:35:32;5.87;-2.24
51305;HTU21D;37392;50.964;6.952;2024-02-26T03:37:58;5.87;-2.16
51305;HTU21D;37392;50.964;6.952;2024-02-26T03:40:23;5.89;-2.25
51305;HTU21D;37392;50.964;6.952;2024-02-26T03:42:49;5.86;-1.91
51305;HTU21D;37392;50.964;6.952;2024-02-26T03:45:15;5.89;-2.26
51305;HTU21D;37392;50.964;6.952;2024-02-26T03:47:41;5.83;-1.33
51305;HTU21D;37392;50.964;6.952;2024-02-26T03:50:07;5.91;-2.11
51305;HTU21D;37392;50.964;6.952;2024-02-26T03:52:33;5.90;-1.77
51305;HTU21D;37392;50.964;6.952;2024-02-26T03:54:59;5.87;-1.34
51305;HTU21D;37392;50.964;6.952;2024-02-26T03:57:25;5.84;-0.68
51305;HTU21D;37392;50.964;6.952;2024-02-26T03:59:51;5.91;-1.39
51305;HTU21D;37392;50.964;6.952;2024-02-26T04:02:16;5.83;-0.35
51305;HTU21D;37392;50.964;6.952;2024-02-26T04:04:42;5.81;-0.03
51305;HTU21D;37392;50.964;6.952;2024-02-26T04:07:07;5.82;-0.22
51305;HTU21D;37392;50.964;6.952;2024-02-26T04:09:33;5.79;1.03
51305;HTU21D;37392;50.964;6.952;2024-02-26T04:11:59;5.84;0.27
51305;HTU21D;37392;50.964;6.952;2024-02-26T04:14:24;5.87;-0.06
51305;HTU21D;37392;50.964;6.952;2024-02-26T04:16:50;5.89;0.04
51305;HTU21D;37392;50.964;6.952;2024-02-26T04:19:17;5.87;0.14
51305;HTU21D;37392;50.964;6.952;2024-02-26T04:21:43;5.81;0.98
51305;HTU21D;37392;50.964;6.952;2024-02-26T04:24:09;5.86;0.64
51305;HTU21D;37392;50.964;6.952;2024-02-26T04:26:34;5.87;1.25
51305;HTU21D;37392;50.964;6.952;2024-02-26T04:29:00;5.85;1.54
51305;HTU21D;37392;50.964;6.952;2024-02-26T04:31:26;5.87;0.88
51305;HTU21D;37392;50.964;6.952;2024-02-26T04:33:52;5.85;1.29
51305;HTU21D;37392;50.964;6.952;2024-02-26T04:36:17;5.89;1.35
51305;HTU21D;37392;50.964;6.952;2024-02-26T04:38:43;5.87;1.31
51305;HTU21D;37392;50.964;6.952;2024-02-26T04:41:09;5.83;2.16
51305;HTU21D;37392;50.964;6.952;2024-02-26T04:43:35;5.85;2.31
51305;HTU21D;37392;50.964;6.952;2024-02-26T04:46:07;5.83;3.06
51305;HTU21D;37392;50.964;6.952;2024-02-26T04:48:34;5.80;3.70
51305;HTU21D;37392;50.964;6.952;2024-02-26T04:51:00;5.80;3.96
51305;HTU21D;37392;50.964;6.952;2024-02-26T04:53:26;5.80;4.10
51305;HTU21D;37392;50.964;6.952;2024-02-26T04:55:52;5.81;4.20
51305;HTU21D;37392;50.964;6.952;2024-02-26T04:58:17;5.77;4.80
51305;HTU21D;37392;50.964;6.952;2024-02-26T05:00:43;5.81;4.62
51305;HTU21D;37392;50.964;6.952;2024-02-26T05:03:08;5.80;4.72
51305;HTU21D;37392;50.964;6.952;2024-02-26T05:05:38;5.80;4.42
51305;HTU21D;37392;50.964;6.952;2024-02-26T05:08:04;5.86;2.96
51305;HTU21D;37392;50.964;6.952;2024-02-26T05:10:30;5.86;3.03
51305;HTU21D;37392;50.964;6.952;2024-02-26T05:12:55;5.85;2.61
51305;HTU21D;37392;50.964;6.952;2024-02-26T05:15:21;5.83;3.47
51305;HTU21D;37392;50.964;6.952;2024-02-26T05:17:46;5.81;4.38
51305;HTU21D;37392;50.964;6.952;2024-02-26T05:20:12;5.81;4.12
51305;HTU21D;37392;50.964;6.952;2024-02-26T05:22:37;5.83;2.64
51305;HTU21D;37392;50.964;6.952;2024-02-26T05:25:03;5.81;3.32
51305;HTU21D;37392;50.964;6.952;2024-02-26T05:27:29;5.78;4.08
51305;HTU21D;37392;50.964;6.952;2024-02-26T05:29:55;5.75;4.37
51305;HTU21D;37392;50.964;6.952;2024-02-26T05:32:21;5.75;5.13
51305;HTU21D;37392;50.964;6.952;2024-02-26T05:34:47;5.78;4.88
51305;HTU21D;37392;50.964;6.952;2024-02-26T05:37:12;5.76;4.51
51305;HTU21D;37392;50.964;6.952;2024-02-26T05:39:38;5.75;4.80
51305;HTU21D;37392;50.964;6.952;2024-02-26T05:42:04;5.72;5.09
51305;HTU21D;37392;50.964;6.952;2024-02-26T05:44:30;5.77;4.86
51305;HTU21D;37392;50.964;6.952;2024-02-26T05:46:55;5.72;4.97
51305;HTU21D;37392;50.964;6.952;2024-02-26T05:49:22;5.71;4.83
51305;HTU21D;37392;50.964;6.952;2024-02-26T05:51:48;5.77;4.92
51305;HTU21D;37392;50.964;6.952;2024-02-26T05:54:13;5.75;4.78
51305;HTU21D;37392;50.964;6.952;2024-02-26T05:56:39;5.76;5.12
51305;HTU21D;37392;50.964;6.952;2024-02-26T05:59:05;5.75;5.38
51305;HTU21D;37392;50.964;6.952;2024-02-26T06:01:30;5.79;4.73
51305;HTU21D;37392;50.964;6.952;2024-02-26T06:03:56;5.78;4.44
51305;HTU21D;37392;50.964;6.952;2024-02-26T06:06:22;5.74;5.23
51305;HTU21D;37392;50.964;6.952;2024-02-26T06:08:48;5.75;5.03
51305;HTU21D;37392;50.964;6.952;2024-02-26T06:11:14;5.74;5.41
51305;HTU21D;37392;50.964;6.952;2024-02-26T06:13:40;5.72;5.25
51305;HTU21D;37392;50.964;6.952;2024-02-26T06:16:08;5.70;6.04
51305;HTU21D;37392;50.964;6.952;2024-02-26T06:18:33;5.68;5.62
51305;HTU21D;37392;50.964;6.952;2024-02-26T06:21:00;5.78;4.67
51305;HTU21D;37392;50.964;6.952;2024-02-26T06:23:25;5.76;4.79
51305;HTU21D;37392;50.964;6.952;2024-02-26T06:25:51;5.75;4.61
51305;HTU21D;37392;50.964;6.952;2024-02-26T06:28:17;5.75;4.94
51305;HTU21D;37392;50.964;6.952;2024-02-26T06:30:43;5.75;4.89
51305;HTU21D;37392;50.964;6.952;2024-02-26T06:33:08;5.75;4.63
51305;HTU21D;37392;50.964;6.952;2024-02-26T06:35:34;5.71;4.83
51305;HTU21D;37392;50.964;6.952;2024-02-26T06:37:59;5.72;4.66
51305;HTU21D;37392;50.964;6.952;2024-02-26T06:40:25;5.75;4.70
51305;HTU21D;37392;50.964;6.952;2024-02-26T06:42:51;5.74;4.77
51305;HTU21D;37392;50.964;6.952;2024-02-26T06:45:17;5.75;3.90
51305;HTU21D;37392;50.964;6.952;2024-02-26T06:47:43;5.72;4.49
51305;HTU21D;37392;50.964;6.952;2024-02-26T06:50:11;5.72;4.88
51305;HTU21D;37392;50.964;6.952;2024-02-26T06:52:37;5.76;4.93
51305;HTU21D;37392;50.964;6.952;2024-02-26T06:55:03;5.77;4.43
51305;HTU21D;37392;50.964;6.952;2024-02-26T06:57:30;5.77;4.34
51305;HTU21D;37392;50.964;6.952;2024-02-26T06:59:55;5.78;4.25
51305;HTU21D;37392;50.964;6.952;2024-02-26T07:02:21;5.77;4.47
51305;HTU21D;37392;50.964;6.952;2024-02-26T07:04:46;5.74;4.50
51305;HTU21D;37392;50.964;6.952;2024-02-26T07:07:12;5.79;4.39
51305;HTU21D;37392;50.964;6.952;2024-02-26T07:09:41;5.79;4.67
51305;HTU21D;37392;50.964;6.952;2024-02-26T07:12:07;5.78;4.65
51305;HTU21D;37392;50.964;6.952;2024-02-26T07:14:32;5.80;4.85
51305;HTU21D;37392;50.964;6.952;2024-02-26T07:16:58;5.81;4.94
51305;HTU21D;37392;50.964;6.952;2024-02-26T07:19:23;5.83;4.83
51305;HTU21D;37392;50.964;6.952;2024-02-26T07:21:49;5.78;5.06
51305;HTU21D;37392;50.964;6.952;2024-02-26T07:24:14;5.81;5.55
51305;HTU21D;37392;50.964;6.952;2024-02-26T07:26:40;5.84;4.64
51305;HTU21D;37392;50.964;6.952;2024-02-26T07:29:06;5.85;4.04
51305;HTU21D;37392;50.964;6.952;2024-02-26T07:31:31;5.86;4.84
51305;HTU21D;37392;50.964;6.952;2024-02-26T07:33:57;5.87;4.37
51305;HTU21D;37392;50.964;6.952;2024-02-26T07:36:22;5.89;4.84
51305;HTU21D;37392;50.964;6.952;2024-02-26T07:38:48;5.90;4.11
51305;HTU21D;37392;50.964;6.952;2024-02-26T07:41:13;5.86;4.46
51305;HTU21D;37392;50.964;6.952;2024-02-26T07:43:39;5.84;5.00
51305;HTU21D;37392;50.964;6.952;2024-02-26T07:46:06;5.87;4.70
51305;HTU21D;37392;50.964;6.952;2024-02-26T07:48:32;5.85;4.41
51305;HTU21D;37392;50.964;6.952;2024-02-26T07:50:57;5.84;5.28
51305;HTU21D;37392;50.964;6.952;2024-02-26T07:53:25;5.83;5.11
51305;HTU21D;37392;50.964;6.952;2024-02-26T07:55:50;5.85;5.04
51305;HTU21D;37392;50.964;6.952;2024-02-26T07:58:16;5.87;4.76
51305;HTU21D;37392;50.964;6.952;2024-02-26T08:00:41;5.85;5.12
51305;HTU21D;37392;50.964;6.952;2024-02-26T08:03:07;5.89;5.36
51305;HTU21D;37392;50.964;6.952;2024-02-26T08:05:33;5.86;4.73
51305;HTU21D;37392;50.964;6.952;2024-02-26T08:07:58;5.86;4.90
51305;HTU21D;37392;50.964;6.952;2024-02-26T08:10:24;5.86;4.79
51305;HTU21D;37392;50.964;6.952;2024-02-26T08:12:49;5.89;3.86
51305;HTU21D;37392;50.964;6.952;2024-02-26T08:15:15;5.87;4.15
51305;HTU21D;37392;50.964;6.952;2024-02-26T08:17:40;5.91;4.35
51305;HTU21D;37392;50.964;6.952;2024-02-26T08:20:06;5.91;4.41
51305;HTU21D;37392;50.964;6.952;2024-02-26T08:22:32;5.90;4.88
51305;HTU21D;37392;50.964;6.952;2024-02-26T08:24:58;5.92;5.01
51305;HTU21D;37392;50.964;6.952;2024-02-26T08:27:24;5.93;4.61
51305;HTU21D;37392;50.964;6.952;2024-02-26T08:29:49;5.93;5.02
51305;HTU21D;37392;50.964;6.952;2024-02-26T08:32:15;5.89;4.78
51305;HTU21D;37392;50.964;6.952;2024-02-26T08:34:42;5.91;4.39
51305;HTU21D;37392;50.964;6.952;2024-02-26T08:37:07;5.93;3.91
51305;HTU21D;37392;50.964;6.952;2024-02-26T08:39:32;5.97;4.67
51305;HTU21D;37392;50.964;6.952;2024-02-26T08:41:58;5.93;4.80
51305;HTU21D;37392;50.964;6.952;2024-02-26T08:44:24;5.97;5.22
51305;HTU21D;37392;50.964;6.952;2024-02-26T08:46:50;6.01;4.91
51305;HTU21D;37392;50.964;6.952;2024-02-26T08:49:16;5.97;4.12
51305;HTU21D;37392;50.964;6.952;2024-02-26T08:51:44;5.97;4.15
51305;HTU21D;37392;50.964;6.952;2024-02-26T08:54:10;5.95;5.09
51305;HTU21D;37392;50.964;6.952;2024-02-26T08:56:36;5.96;5.08
51305;HTU21D;37392;50.964;6.952;2024-02-26T08:59:02;5.96;4.48
51305;HTU21D;37392;50.964;6.952;2024-02-26T09:01:29;6.02;4.22
51305;HTU21D;37392;50.964;6.952;2024-02-26T09:03:56;6.02;3.00
51305;HTU21D;37392;50.964;6.952;2024-02-26T09:06:22;5.99;3.48
51305;HTU21D;37392;50.964;6.952;2024-02-26T09:08:47;6.04;4.39
51305;HTU21D;37392;50.964;6.952;2024-02-26T09:11:13;6.02;4.97
51305;HTU21D;37392;50.964;6.952;2024-02-26T09:13:38;6.06;5.18
51305;HTU21D;37392;50.964;6.952;2024-02-26T09:16:05;6.08;4.95
51305;HTU21D;37392;50.964;6.952;2024-02-26T09:18:31;6.04;4.79
51305;HTU21D;37392;50.964;6.952;2024-02-26T09:20:56;6.04;4.75
51305;HTU21D;37392;50.964;6.952;2024-02-26T09:23:22;6.06;4.65
51305;HTU21D;37392;50.964;6.952;2024-02-26T09:25:47;6.07;5.60
51305;HTU21D;37392;50.964;6.952;2024-02-26T09:28:13;6.04;4.93
51305;HTU21D;37392;50.964;6.952;2024-02-26T09:30:40;6.04;4.41
51305;HTU21D;37392;50.964;6.952;2024-02-26T09:33:06;6.00;4.79
51305;HTU21D;37392;50.964;6.952;2024-02-26T09:35:32;5.96;5.84
51305;HTU21D;37392;50.964;6.952;2024-02-26T09:37:57;5.94;5.62
51305;HTU21D;37392;50.964;6.952;2024-02-26T09:40:23;5.98;6.25
51305;HTU21D;37392;50.964;6.952;2024-02-26T09:42:51;5.96;6.41
51305;HTU21D;37392;50.964;6.952;2024-02-26T09:45:19;5.95;6.97
51305;HTU21D;37392;50.964;6.952;2024-02-26T09:47:48;5.92;6.96
51305;HTU21D;37392;50.964;6.952;2024-02-26T09:50:16;5.93;6.15
51305;HTU21D;37392;50.964;6.952;2024-02-26T09:52:43;5.91;5.45
51305;HTU21D;37392;50.964;6.952;2024-02-26T09:55:09;5.96;6.05
51305;HTU21D;37392;50.964;6.952;2024-02-26T09:57:36;6.01;6.31
51305;HTU21D;37392;50.964;6.952;2024-02-26T10:00:03;6.02;6.44
51305;HTU21D;37392;50.964;6.952;2024-02-26T10:02:31;6.01;6.97
51305;HTU21D;37392;50.964;6.952;2024-02-26T10:05:02;6.08;7.68
51305;HTU21D;37392;50.964;6.952;2024-02-26T10:07:30;6.15;7.82
51305;HTU21D;37392;50.964;6.952;2024-02-26T10:09:57;6.14;7.54
51305;HTU21D;37392;50.964;6.952;2024-02-26T10:12:23;6.14;7.22
51305;HTU21D;37392;50.964;6.952;2024-02-26T10:14:51;6.14;7.86
51305;HTU21D;37392;50.964;6.952;2024-02-26T10:17:17;6.19;7.70
51305;HTU21D;37392;50.964;6.952;2024-02-26T10:19:44;6.15;7.53
51305;HTU21D;37392;50.964;6.952;2024-02-26T10:22:09;6.16;7.23
51305;HTU21D;37392;50.964;6.952;2024-02-26T10:24:35;6.15;7.75
51305;HTU21D;37392;50.964;6.952;2024-02-26T10:27:01;6.19;7.53
51305;HTU21D;37392;50.964;6.952;2024-02-26T10:29:27;6.25;8.17
51305;HTU21D;37392;50.964;6.952;2024-02-26T10:31:53;6.33;7.78
51305;HTU21D;37392;50.964;6.952;2024-02-26T10:34:20;6.35;7.57
51305;HTU21D;37392;50.964;6.952;2024-02-26T10:36:46;6.39;8.08
51305;HTU21D;37392;50.964;6.952;2024-02-26T10:39:12;6.45;7.15
51305;HTU21D;37392;50.964;6.952;2024-02-26T10:41:42;6.56;7.02
51305;HTU21D;37392;50.964;6.952;2024-02-26T10:44:12;6.52;5.89
51305;HTU21D;37392;50.964;6.952;2024-02-26T10:46:39;6.63;7.32
51305;HTU21D;37392;50.964;6.952;2024-02-26T10:49:13;6.69;7.53
51305;HTU21D;37392;50.964;6.952;2024-02-26T10:51:42;6.79;7.57
51305;HTU21D;37392;50.964;6.952;2024-02-26T10:54:14;6.79;7.12
51305;HTU21D;37392;50.964;6.952;2024-02-26T10:56:41;6.83;7.28
51305;HTU21D;37392;50.964;6.952;2024-02-26T10:59:09;6.94;7.40
51305;HTU21D;37392;50.964;6.952;2024-02-26T11:01:36;6.94;7.36
51305;HTU21D;37392;50.964;6.952;2024-02-26T11:04:06;7.02;7.71
51305;HTU21D;37392;50.964;6.952;2024-02-26T11:06:50;6.91;7.09
51305;HTU21D;37392;50.964;6.952;2024-02-26T11:09:17;6.81;5.90
51305;HTU21D;37392;50.964;6.952;2024-02-26T11:11:44;6.86;7.01
51305;HTU21D;37392;50.964;6.952;2024-02-26T11:14:11;6.91;5.84
51305;HTU21D;37392;50.964;6.952;2024-02-26T11:16:41;6.90;5.17
51305;HTU21D;37392;50.964;6.952;2024-02-26T11:19:10;6.95;5.41
51305;HTU21D;37392;50.964;6.952;2024-02-26T11:21:36;6.96;5.16
51305;HTU21D;37392;50.964;6.952;2024-02-26T11:24:15;7.02;6.45
51305;HTU21D;37392;50.964;6.952;2024-02-26T11:27:03;7.02;7.09
51305;HTU21D;37392;50.964;6.952;2024-02-26T11:29:37;7.12;5.42
51305;HTU21D;37392;50.964;6.952;2024-02-26T11:32:05;7.10;5.33
51305;HTU21D;37392;50.964;6.952;2024-02-26T11:34:31;7.20;5.34
51305;HTU21D;37392;50.964;6.952;2024-02-26T11:36:56;7.23;5.12
51305;HTU21D;37392;50.964;6.952;2024-02-26T11:39:23;7.29;4.49
51305;HTU21D;37392;50.964;6.952;2024-02-26T11:41:50;7.23;3.38
51305;HTU21D;37392;50.964;6.952;2024-02-26T11:44:28;7.17;2.95
51305;HTU21D;37392;50.964;6.952;2024-02-26T11:46:56;7.18;3.69
51305;HTU21D;37392;50.964;6.952;2024-02-26T11:51:57;7.13;2.94
51305;HTU21D;37392;50.964;6.952;2024-02-26T12:00:11;7.09;4.66
51305;HTU21D;37392;50.964;6.952;2024-02-26T12:02:44;7.14;4.95
51305;HTU21D;37392;50.964;6.952;2024-02-26T12:05:22;7.10;3.76
51305;HTU21D;37392;50.964;6.952;2024-02-26T12:08:04;7.17;4.39
51305;HTU21D;37392;50.964;6.952;2024-02-26T12:10:44;7.27;6.25
51305;HTU21D;37392;50.964;6.952;2024-02-26T12:13:12;7.28;5.67
51305;HTU21D;37392;50.964;6.952;2024-02-26T12:15:41;7.31;5.61
51305;HTU21D;37392;50.964;6.952;2024-02-26T12:18:09;7.37;5.22
51305;HTU21D;37392;50.964;6.952;2024-02-26T12:20:37;7.37;4.44
51305;HTU21D;37392;50.964;6.952;2024-02-26T12:23:03;7.37;3.78
51305;HTU21D;37392;50.964;6.952;2024-02-26T12:25:30;7.42;4.22
51305;HTU21D;37392;50.964;6.952;2024-02-26T12:27:57;7.39;4.40
51305;HTU21D;37392;50.964;6.952;2024-02-26T12:30:23;7.33;4.44
51305;HTU21D;37392;50.964;6.952;2024-02-26T12:32:52;7.32;4.72
51305;HTU21D;37392;50.964;6.952;2024-02-26T12:35:22;7.28;3.67
51305;HTU21D;37392;50.964;6.952;2024-02-26T12:37:50;7.28;4.61
51305;HTU21D;37392;50.964;6.952;2024-02-26T12:40:17;7.27;3.65
51305;HTU21D;37392;50.964;6.952;2024-02-26T12:42:43;7.27;3.86
51305;HTU21D;37392;50.964;6.952;2024-02-26T12:45:10;7.26;2.77
51305;HTU21D;37392;50.964;6.952;2024-02-26T12:47:41;7.20;2.79
51305;HTU21D;37392;50.964;6.952;2024-02-26T12:50:08;7.26;3.69
51305;HTU21D;37392;50.964;6.952;2024-02-26T12:52:39;7.27;4.39
51305;HTU21D;37392;50.964;6.952;2024-02-26T12:55:06;7.27;4.57
51305;HTU21D;37392;50.964;6.952;2024-02-26T12:57:38;7.27;4.22
51305;HTU21D;37392;50.964;6.952;2024-02-26T13:00:05;7.35;4.28
51305;HTU21D;37392;50.964;6.952;2024-02-26T13:02:35;7.40;4.22
51305;HTU21D;37392;50.964;6.952;2024-02-26T13:05:03;7.47;4.85
51305;HTU21D;37392;50.964;6.952;2024-02-26T13:07:29;7.56;5.76
51305;HTU21D;37392;50.964;6.952;2024-02-26T13:09:55;7.58;5.02
51305;HTU21D;37392;50.964;6.952;2024-02-26T13:12:20;7.65;5.95
51305;HTU21D;37392;50.964;6.952;2024-02-26T13:14:46;7.71;4.67
51305;HTU21D;37392;50.964;6.952;2024-02-26T13:17:11;7.75;3.90
51305;HTU21D;37392;50.964;6.952;2024-02-26T13:19:37;7.73;3.83
51305;HTU21D;37392;50.964;6.952;2024-02-26T13:22:06;7.63;3.09
51305;HTU21D;37392;50.964;6.952;2024-02-26T13:24:33;7.58;3.13
51305;HTU21D;37392;50.964;6.952;2024-02-26T13:26:59;7.61;4.15
51305;HTU21D;37392;50.964;6.952;2024-02-26T13:29:25;7.58;2.55
51305;HTU21D;37392;50.964;6.952;2024-02-26T13:31:57;7.58;3.38
51305;HTU21D;37392;50.964;6.952;2024-02-26T13:34:24;7.59;4.32
51305;HTU21D;37392;50.964;6.952;2024-02-26T13:36:50;7.71;4.24
51305;HTU21D;37392;50.964;6.952;2024-02-26T13:39:24;7.78;4.21
51305;HTU21D;37392;50.964;6.952;2024-02-26T13:41:51;7.77;4.36
51305;HTU21D;37392;50.964;6.952;2024-02-26T13:44:19;7.83;3.83
51305;HTU21D;37392;50.964;6.952;2024-02-26T13:46:45;8.01;5.56
51305;HTU21D;37392;50.964;6.952;2024-02-26T13:49:10;7.98;3.70
51305;HTU21D;37392;50.964;6.952;2024-02-26T13:51:37;7.94;2.52
51305;HTU21D;37392;50.964;6.952;2024-02-26T13:54:03;7.94;3.09
51305;HTU21D;37392;50.964;6.952;2024-02-26T13:56:29;7.98;3.03
51305;HTU21D;37392;50.964;6.952;2024-02-26T13:58:55;7.96;2.96
51305;HTU21D;37392;50.964;6.952;2024-02-26T14:01:21;7.88;2.74
51305;HTU21D;37392;50.964;6.952;2024-02-26T14:03:46;7.81;1.24
51305;HTU21D;37392;50.964;6.952;2024-02-26T14:06:12;7.76;2.34
51305;HTU21D;37392;50.964;6.952;2024-02-26T14:08:37;7.83;3.02
51305;HTU21D;37392;50.964;6.952;2024-02-26T14:11:03;7.73;2.53
51305;HTU21D;37392;50.964;6.952;2024-02-26T14:13:28;7.68;2.55
51305;HTU21D;37392;50.964;6.952;2024-02-26T14:15:54;7.70;2.85
51305;HTU21D;37392;50.964;6.952;2024-02-26T14:18:20;7.75;3.61
51305;HTU21D;37392;50.964;6.952;2024-02-26T14:20:45;7.84;3.61
51305;HTU21D;37392;50.964;6.952;2024-02-26T14:23:11;7.86;2.58
51305;HTU21D;37392;50.964;6.952;2024-02-26T14:25:36;7.86;2.54
51305;HTU21D;37392;50.964;6.952;2024-02-26T14:28:02;7.87;2.22
51305;HTU21D;37392;50.964;6.952;2024-02-26T14:30:28;7.79;2.76
51305;HTU21D;37392;50.964;6.952;2024-02-26T14:32:54;7.87;3.29
51305;HTU21D;37392;50.964;6.952;2024-02-26T14:35:20;7.91;1.18
51305;HTU21D;37392;50.964;6.952;2024-02-26T14:37:46;7.91;1.30
51305;HTU21D;37392;50.964;6.952;2024-02-26T14:40:13;7.96;1.71
51305;HTU21D;37392;50.964;6.952;2024-02-26T14:42:39;7.88;1.97
51305;HTU21D;37392;50.964;6.952;2024-02-26T14:45:06;7.82;1.13
51305;HTU21D;37392;50.964;6.952;2024-02-26T14:47:34;7.89;1.00
51305;HTU21D;37392;50.964;6.952;2024-02-26T14:50:00;7.86;0.71
51305;HTU21D;37392;50.964;6.952;2024-02-26T14:52:26;7.84;0.52
51305;HTU21D;37392;50.964;6.952;2024-02-26T14:54:51;7.86;0.99
51305;HTU21D;37392;50.964;6.952;2024-02-26T14:57:17;7.94;-0.97
51305;HTU21D;37392;50.964;6.952;2024-02-26T14:59:43;7.97;-1.35
51305;HTU21D;37392;50.964;6.952;2024-02-26T15:02:09;8.06;-0.21
51305;HTU21D;37392;50.964;6.952;2024-02-26T15:04:36;8.03;-2.60
51305;HTU21D;37392;50.964;6.952;2024-02-26T15:07:02;8.07;-1.50
51305;HTU21D;37392;50.964;6.952;2024-02-26T15:09:28;8.07;-1.64
51305;HTU21D;37392;50.964;6.952;2024-02-26T15:11:53;8.09;-1.86
51305;HTU21D;37392;50.964;6.952;2024-02-26T15:14:19;8.09;-1.45
51305;HTU21D;37392;50.964;6.952;2024-02-26T15:16:44;8.04;-2.40
51305;HTU21D;37392;50.964;6.952;2024-02-26T15:19:10;8.07;-2.07
51305;HTU21D;37392;50.964;6.952;2024-02-26T15:21:43;8.05;-3.39
51305;HTU21D;37392;50.964;6.952;2024-02-26T15:24:10;8.05;-3.54
51305;HTU21D;37392;50.964;6.952;2024-02-26T15:26:37;8.07;-3.26
51305;HTU21D;37392;50.964;6.952;2024-02-26T15:29:03;8.12;-3.35
51305;HTU21D;37392;50.964;6.952;2024-02-26T15:31:28;8.08;-4.19
51305;HTU21D;37392;50.964;6.952;2024-02-26T15:33:54;8.08;-2.99
51305;HTU21D;37392;50.964;6.952;2024-02-26T15:36:19;8.06;-2.96
51305;HTU21D;37392;50.964;6.952;2024-02-26T15:38:45;8.06;-2.37
51305;HTU21D;37392;50.964;6.952;2024-02-26T15:41:12;8.12;-1.12
51305;HTU21D;37392;50.964;6.952;2024-02-26T15:43:42;8.15;-0.68
51305;HTU21D;37392;50.964;6.952;2024-02-26T15:46:08;8.17;-0.84
51305;HTU21D;37392;50.964;6.952;2024-02-26T15:48:36;8.11;-1.05